This is the latest recevied weather packets stored in our database for station/object OE3XAM-13. If no packets are shown the sender has not sent any weather packets the latest 10 day(s).
| Time | Temp. | Humidity | Pressure | Rain* | Wind** | Luminosity | Snow |
|---|---|---|---|---|---|---|---|
| 1777583488 | 3.89° C | 63% | 992 hPa | 0 mm | - | - | - |
| 1777581688 | 4.44° C | 61% | 993 hPa | 0 mm | - | - | - |
| 1777579888 | 5° C | 57% | 993 hPa | 0 mm | - | - | - |
| 1777578088 | 5.56° C | 55% | 992 hPa | 0 mm | - | - | - |
| 1777576288 | 6.67° C | 51% | 992 hPa | 0 mm | - | - | - |
| 1777574488 | 8.33° C | 45% | 992 hPa | 0 mm | - | - | - |
| 1777572688 | 10.56° C | 39% | 991 hPa | 0 mm | - | - | - |
| 1777570888 | 12.78° C | 29% | 991 hPa | 0 mm | - | - | - |
| 1777569088 | 13.89° C | 26% | 991 hPa | 0 mm | - | - | - |
| 1777567288 | 14.44° C | 24% | 991 hPa | 0 mm | - | - | - |
| 1777565488 | 15.56° C | 24% | 991 hPa | 0 mm | - | - | - |
| 1777563688 | 15.56° C | 23% | 991 hPa | 0 mm | - | - | - |
| 1777561888 | 16.11° C | 23% | 992 hPa | 0 mm | - | - | - |
| 1777560088 | 16.11° C | 24% | 992 hPa | 0 mm | - | - | - |
| 1777558288 | 15.56° C | 25% | 992 hPa | 0 mm | - | - | - |
| 1777556488 | 15.56° C | 24% | 992 hPa | 0 mm | - | - | - |
| 1777554688 | 15° C | 24% | 992 hPa | 0 mm | - | - | - |
| 1777552888 | 14.44° C | 26% | 993 hPa | 0 mm | - | - | - |
| 1777551088 | 14.44° C | 26% | 993 hPa | 0 mm | - | - | - |
| 1777549288 | 13.33° C | 27% | 993 hPa | 0 mm | - | - | - |
| 1777547488 | 13.33° C | 27% | 993 hPa | 0 mm | - | - | - |
| 1777545688 | 12.78° C | 28% | 994 hPa | 0 mm | - | - | - |
| 1777543888 | 11.67° C | 28% | 994 hPa | 0 mm | - | - | - |
| 1777542088 | 11.11° C | 27% | 994 hPa | 0 mm | - | - | - |
| 1777540288 | 10.56° C | 31% | 994 hPa | 0 mm | - | - | - |
* Rain latest hour (hover to see other rain measurements)
** Current wind speed in m/s (hover to see current wind gust speed)